ADDS METAR Data INFO
IDs: Format: Raw Decoded Include TAF

Data at: 1001 UTC 12 Dec 2017

KMIC 120953Z 31009KT 10SM CLR M14/M18 A3024 RMK AO2 SLP257 T11391178
KMIC 120853Z 31009KT 10SM CLR M13/M17 A3025 RMK AO2 SLP258 T11281172 53008
KMIC 120753Z 32010KT 10SM CLR M12/M17 A3024 RMK AO2 SLP254 T11171167
KMIC 120653Z 32013KT 10SM CLR M11/M16 A3024 RMK AO2 SLP254 T11111161
KMIC 120553Z 32012KT 10SM CLR M10/M15 A3023 RMK AO2 SLP249 T11001150 11033 21100 400171100 51013
KMIC 120453Z 32011KT 10SM CLR M09/M14 A3022 RMK AO2 SLP248 T10891139
KMIC 120353Z 32015KT 10SM CLR M07/M13 A3021 RMK AO2 SLP241 T10721133
KMIC 120253Z 33015G19KT 10SM CLR M07/M14 A3019 RMK AO2 SLP236 T10671139 51034
KMIC 120153Z 33012KT 10SM CLR M06/M13 A3016 RMK AO2 SLP227 T10561128
KMIC 120053Z 32013G21KT 10SM FEW031 M05/M12 A3013 RMK AO2 PK WND 33026/0017 SLP215 T10501117
KMIC 112353Z 32014G22KT 10SM BKN030 M03/M10 A3008 RMK AO2 SLP200 T10331100 10017 21033 51048
KMIC 112319Z 33012KT 10SM OVC030 M03/M09 A3005 RMK AO2 T10281094
KMIC 112253Z 33017G25KT 10SM OVC026 M02/M09 A3004 RMK AO2 SLP183 T10221089
KMIC 112153Z 35011G21KT 10SM OVC026 M01/M07 A2999 RMK AO2 PK WND 33029/2119 SLP167 T10111072
KMIC 112053Z 32015G23KT 10SM BKN022 OVC035 01/M05 A2994 RMK AO2 PK WND 32029/2024 SLP148 T00061050 53046
KMIC 111953Z 34016KT 10SM OVC021 01/M04 A2988 RMK AO2 PK WND 36027/1911 SLP131 T00111044
KMIC 111853Z 34018G28KT 10SM OVC019 01/M04 A2983 RMK AO2 PK WND 34028/1848 SLP114 T00111039
KMIC 111753Z 33016G21KT 10SM OVC015 02/M02 A2980 RMK AO2 SLP100 60005 T00171022 10017 21022 53029
KMIC 111702Z 33012KT 10SM BKN014 OVC033 01/M02 A2977 RMK AO2 T00111022
KMIC 111653Z 33009KT 10SM SCT014 OVC031 01/M03 A2977 RMK AO2 SNE01 SLP091 P0000 T00111028
KMIC 111623Z 33009KT 8SM SCT025 OVC039 01/M03 A2975 RMK AO2 SNE01 P0000 T00061028
KMIC 111553Z 32006KT 3SM -SN BKN023 OVC039 00/M03 A2974 RMK AO2 SNB47 SLP082 P0000 T00001028
KMIC 111453Z 00000KT 4SM BR OVC028 M01/M03 A2971 RMK AO2 UPE00SNB00E14 SLP073 P0000 60005 T10111033 53001
KMIC 111438Z 00000KT 4SM BR BKN026 OVC034 M01/M03 A2971 RMK AO2 UPE00SNB00E14 P0000 T10111033
KMIC 111353Z 00000KT 4SM UP BR FEW025 BKN041 OVC050 M02/M04 A2971 RMK AO2 UPE01B53SNB01E53 SLP073 P0002 T10171039
KMIC 111335Z 00000KT 4SM -SN BR FEW025 BKN040 OVC050 M02/M04 A2971 RMK AO2 UPE01SNB01 P0002 T10171039
KMIC 111326Z 00000KT 4SM -SN BR BKN025 BKN040 OVC050 M02/M04 A2971 RMK AO2 UPE01SNB01 P0002 T10171039
KMIC 111322Z 00000KT 2SM -SN BR SCT025 BKN036 OVC047 M02/M04 A2971 RMK AO2 UPE01SNB01 P0002 T10171039
KMIC 111309Z 00000KT 1 3/4SM -SN BR BKN026 OVC036 M02/M04 A2971 RMK AO2 UPE01SNB01 P0001 T10171039
KMIC 111253Z 00000KT 5SM UP OVC036 M02/M04 A2971 RMK AO2 UPB43SNB23E43 SLP072 P0003 T10171044
KMIC 111243Z AUTO 15004KT 4SM UP BKN038 OVC047 M02/M04 A2971 RMK AO2 UPB43SNB23E43 P0003 T10171044 TSNO
KMIC 111233Z AUTO 16005KT 2SM -SN OVC034 M02/M05 A2971 RMK AO2 SNB23 P0002 T10221050 TSNO
KMIC 111153Z AUTO 13003KT 8SM BKN033 OVC055 M02/M05 A2972 RMK AO2 SLP076 60005 70005 T10221050 11022 21033 56033 TSNO
KMIC 111053Z AUTO 16006KT 8SM OVC050 M02/M06 A2974 RMK AO2 SLP084 T10221056 TSNO
KMIC 110953Z AUTO 16008KT 7SM OVC037 M03/M06 A2977 RMK AO2 SLP093 T10281056 TSNO
KMIC 110851Z AUTO 16006KT 6SM BR FEW006 FEW023 OVC040 M03/M06 A2982 RMK AO2 SNE14 SLP108 P0000 60005 T10331056 58033 TSNO
KMIC 110850Z AUTO 16008KT 6SM BR FEW006 SCT023 OVC040 M03/M06 A2982 RMK AO2 SNE14 P0000 TSNO
KMIC 110813Z AUTO 18006KT 4SM -SN BR BKN021 BKN026 OVC050 M03/M06 A2984 RMK AO2 P0000 T10331056 TSNO
KMIC 110753Z AUTO 15006KT 2SM -SN BR OVC022 M03/M06 A2985 RMK AO2 SLP119 P0002 T10331056 TSNO
KMIC 110725Z AUTO 16005KT 1SM -SN BR VV016 M03/M06 A2987 RMK AO2 P0001 T10331056 TSNO
KMIC 110717Z AUTO 15005KT 1SM -SN BR VV014 M03/M06 A2987 RMK AO2 P0001 T10331056 TSNO
KMIC 110653Z AUTO 17004KT 3/4SM -SN VV011 M03/M06 A2990 RMK AO2 SNB14 SLP136 P0003 T10331061 TSNO
KMIC 110640Z AUTO 17005KT 3/4SM -SN VV014 M03/M06 A2990 RMK AO2 SNB14 P0001 T10331061 TSNO
KMIC 110627Z AUTO 18004KT 1 3/4SM -SN OVC028 M03/M07 A2991 RMK AO2 SNB14 P0000 T10331067 TSNO
KMIC 110553Z AUTO 17004KT 8SM SCT060 OVC080 M03/M07 A2992 RMK AO2 SLP143 I6001 T10331067 11033 21089 410171089 58025 TSNO
KMIC 110453Z AUTO 19005KT 8SM OVC085 M04/M07 A2996 RMK AO2 SLP157 T10391072 TSNO
KMIC 110353Z AUTO 17003KT 7SM BKN080 M07/M09 A2998 RMK AO2 SLP165 T10671089 TSNO
KMIC 110253Z 00000KT 5SM BR CLR M07/M09 A2999 RMK AO2 SLP171 I3001 T10721094 58014
KMIC 110153Z 00000KT 4SM BR CLR M08/M10 A3001 RMK AO2 SLP177 I1001 T10781100
KMIC 110053Z 00000KT 6SM BR CLR M07/M09 A3003 RMK AO2 SLP184 T10671089
KMIC 102353Z 00000KT 10SM CLR M06/M09 A3003 RMK AO2 SLP185 T10561089 11017 21056 50009
KMIC 102253Z 00000KT 10SM CLR M04/M08 A3004 RMK AO2 SLP185 T10391083